sensor_id;sensor_type;location;lat;lon;timestamp;pressure;altitude;pressure_sealevel;temperature;humidity
51287;BME280;37364;46.974;18.916;2023-02-12T00:00:02;151149.09;;;3.17;100.00
51287;BME280;37364;46.974;18.916;2023-02-12T00:02:40;151116.94;;;3.04;100.00
51287;BME280;37364;46.974;18.916;2023-02-12T00:05:11;151118.19;;;3.05;100.00
51287;BME280;37364;46.974;18.916;2023-02-12T00:07:45;151158.13;;;3.21;100.00
51287;BME280;37364;46.974;18.916;2023-02-12T00:10:16;151142.66;;;3.14;100.00
51287;BME280;37364;46.974;18.916;2023-02-12T00:12:47;151141.41;;;3.14;100.00
51287;BME280;37364;46.974;18.916;2023-02-12T00:15:21;151156.84;;;3.20;100.00
51287;BME280;37364;46.974;18.916;2023-02-12T00:17:52;151173.56;;;3.27;100.00
51287;BME280;37364;46.974;18.916;2023-02-12T00:20:22;151142.66;;;3.14;100.00
51287;BME280;37364;46.974;18.916;2023-02-12T00:22:54;151162.00;;;3.22;100.00
51287;BME280;37364;46.974;18.916;2023-02-12T00:25:24;151142.66;;;3.14;100.00
51287;BME280;37364;46.974;18.916;2023-02-12T00:27:55;151180.03;;;3.29;100.00
51287;BME280;37364;46.974;18.916;2023-02-12T00:30:29;151159.38;;;3.21;100.00
51287;BME280;37364;46.974;18.916;2023-02-12T00:33:03;151185.19;;;3.31;100.00
51287;BME280;37364;46.974;18.916;2023-02-12T00:35:33;151173.56;;;3.27;100.00
51287;BME280;37364;46.974;18.916;2023-02-12T00:38:04;151173.56;;;3.27;100.00
51287;BME280;37364;46.974;18.916;2023-02-12T00:40:35;151158.13;;;3.21;100.00
51287;BME280;37364;46.974;18.916;2023-02-12T00:43:06;151155.56;;;3.20;100.00
51287;BME280;37364;46.974;18.916;2023-02-12T00:45:41;151145.22;;;3.15;100.00
51287;BME280;37364;46.974;18.916;2023-02-12T00:48:12;151151.69;;;3.18;100.00
51287;BME280;37364;46.974;18.916;2023-02-12T00:50:43;151129.78;;;3.09;100.00
51287;BME280;37364;46.974;18.916;2023-02-12T00:53:15;151113.06;;;3.03;100.00
51287;BME280;37364;46.974;18.916;2023-02-12T00:55:45;151132.38;;;3.10;100.00
51287;BME280;37364;46.974;18.916;2023-02-12T00:58:17;151128.50;;;3.09;100.00
51287;BME280;37364;46.974;18.916;2023-02-12T01:00:52;151152.97;;;3.19;100.00
51287;BME280;37364;46.974;18.916;2023-02-12T01:03:23;151149.09;;;3.17;100.00
51287;BME280;37364;46.974;18.916;2023-02-12T01:05:54;151151.69;;;3.18;100.00
51287;BME280;37364;46.974;18.916;2023-02-12T01:08:25;151146.53;;;3.16;100.00
51287;BME280;37364;46.974;18.916;2023-02-12T01:10:58;151123.34;;;3.07;100.00
51287;BME280;37364;46.974;18.916;2023-02-12T01:13:30;151075.69;;;2.88;100.00
51287;BME280;37364;46.974;18.916;2023-02-12T01:16:06;151084.72;;;2.91;100.00
51287;BME280;37364;46.974;18.916;2023-02-12T01:18:39;151100.16;;;2.97;100.00
51287;BME280;37364;46.974;18.916;2023-02-12T01:21:11;151104.03;;;2.99;100.00
51287;BME280;37364;46.974;18.916;2023-02-12T01:23:43;151128.50;;;3.09;100.00
51287;BME280;37364;46.974;18.916;2023-02-12T01:26:15;151137.53;;;3.12;100.00
51287;BME280;37364;46.974;18.916;2023-02-12T01:28:50;151091.16;;;2.94;100.00
51287;BME280;37364;46.974;18.916;2023-02-12T01:31:26;151100.16;;;2.97;100.00
51287;BME280;37364;46.974;18.916;2023-02-12T01:33:59;151115.59;;;3.04;100.00
51287;BME280;37364;46.974;18.916;2023-02-12T01:36:32;151115.59;;;3.04;100.00
51287;BME280;37364;46.974;18.916;2023-02-12T01:39:04;151096.34;;;2.96;100.00
51287;BME280;37364;46.974;18.916;2023-02-12T01:41:39;151095.00;;;2.95;100.00
51287;BME280;37364;46.974;18.916;2023-02-12T01:44:14;151101.50;;;2.98;100.00
51287;BME280;37364;46.974;18.916;2023-02-12T01:46:49;151113.06;;;3.03;100.00
51287;BME280;37364;46.974;18.916;2023-02-12T01:49:29;151116.94;;;3.04;100.00
51287;BME280;37364;46.974;18.916;2023-02-12T01:52:05;151106.63;;;3.00;100.00
51287;BME280;37364;46.974;18.916;2023-02-12T01:54:37;151134.91;;;3.11;100.00
51287;BME280;37364;46.974;18.916;2023-02-12T01:57:10;151133.66;;;3.11;100.00
51287;BME280;37364;46.974;18.916;2023-02-12T01:59:42;151134.91;;;3.11;100.00
51287;BME280;37364;46.974;18.916;2023-02-12T02:02:18;151163.25;;;3.23;100.00
51287;BME280;37364;46.974;18.916;2023-02-12T02:04:53;151158.13;;;3.21;100.00
51287;BME280;37364;46.974;18.916;2023-02-12T02:07:27;151142.66;;;3.14;100.00
51287;BME280;37364;46.974;18.916;2023-02-12T02:09:58;151160.72;;;3.22;100.00
51287;BME280;37364;46.974;18.916;2023-02-12T02:12:29;151165.84;;;3.24;100.00
51287;BME280;37364;46.974;18.916;2023-02-12T02:15:13;151151.69;;;3.18;100.00
51287;BME280;37364;46.974;18.916;2023-02-12T02:17:50;151151.69;;;3.18;100.00
51287;BME280;37364;46.974;18.916;2023-02-12T02:23:38;151142.66;;;3.14;100.00
51287;BME280;37364;46.974;18.916;2023-02-12T02:26:33;151123.34;;;3.07;100.00
51287;BME280;37364;46.974;18.916;2023-02-12T02:29:28;151097.63;;;2.96;100.00
51287;BME280;37364;46.974;18.916;2023-02-12T02:32:13;151086.00;;;2.92;100.00
51287;BME280;37364;46.974;18.916;2023-02-12T02:34:51;151088.59;;;2.93;100.00
51287;BME280;37364;46.974;18.916;2023-02-12T02:37:30;151098.88;;;2.97;100.00
51287;BME280;37364;46.974;18.916;2023-02-12T02:40:09;151119.47;;;3.05;100.00
51287;BME280;37364;46.974;18.916;2023-02-12T02:42:45;151101.50;;;2.98;100.00
51287;BME280;37364;46.974;18.916;2023-02-12T02:45:23;151088.59;;;2.93;100.00
51287;BME280;37364;46.974;18.916;2023-02-12T02:48:00;151104.03;;;2.99;100.00
51287;BME280;37364;46.974;18.916;2023-02-12T02:50:34;151109.19;;;3.01;100.00
51287;BME280;37364;46.974;18.916;2023-02-12T02:53:10;151077.03;;;2.88;100.00
51287;BME280;37364;46.974;18.916;2023-02-12T02:55:46;151062.88;;;2.83;100.00
51287;BME280;37364;46.974;18.916;2023-02-12T02:58:22;151068.00;;;2.85;100.00
51287;BME280;37364;46.974;18.916;2023-02-12T03:00:59;151051.25;;;2.78;100.00
51287;BME280;37364;46.974;18.916;2023-02-12T03:03:39;151042.28;;;2.74;100.00
51287;BME280;37364;46.974;18.916;2023-02-12T03:06:18;151013.94;;;2.63;100.00
51287;BME280;37364;46.974;18.916;2023-02-12T03:08:54;151015.22;;;2.64;100.00
51287;BME280;37364;46.974;18.916;2023-02-12T03:11:32;151029.38;;;2.69;100.00
51287;BME280;37364;46.974;18.916;2023-02-12T03:14:05;151019.09;;;2.65;100.00
51287;BME280;37364;46.974;18.916;2023-02-12T03:16:45;151026.78;;;2.68;100.00
51287;BME280;37364;46.974;18.916;2023-02-12T03:19:22;150990.78;;;2.54;100.00
51287;BME280;37364;46.974;18.916;2023-02-12T03:21:57;150976.59;;;2.48;100.00
51287;BME280;37364;46.974;18.916;2023-02-12T03:24:33;150990.78;;;2.54;100.00
51287;BME280;37364;46.974;18.916;2023-02-12T03:27:09;150975.34;;;2.48;100.00
51287;BME280;37364;46.974;18.916;2023-02-12T03:29:43;150949.59;;;2.37;100.00
51287;BME280;37364;46.974;18.916;2023-02-12T03:32:26;150941.88;;;2.34;100.00
51287;BME280;37364;46.974;18.916;2023-02-12T03:35:09;150947.00;;;2.36;100.00
51287;BME280;37364;46.974;18.916;2023-02-12T03:37:48;150944.47;;;2.35;100.00
51287;BME280;37364;46.974;18.916;2023-02-12T03:40:25;150943.13;;;2.35;100.00
51287;BME280;37364;46.974;18.916;2023-02-12T03:43:01;150954.75;;;2.40;100.00
51287;BME280;37364;46.974;18.916;2023-02-12T03:45:39;150928.97;;;2.29;100.00
51287;BME280;37364;46.974;18.916;2023-02-12T03:48:18;150903.25;;;2.19;100.00
51287;BME280;37364;46.974;18.916;2023-02-12T03:50:58;150921.28;;;2.26;100.00
51287;BME280;37364;46.974;18.916;2023-02-12T03:53:31;150913.53;;;2.23;100.00
51287;BME280;37364;46.974;18.916;2023-02-12T03:56:08;150914.88;;;2.24;100.00
51287;BME280;37364;46.974;18.916;2023-02-12T03:58:41;150926.44;;;2.28;100.00
51287;BME280;37364;46.974;18.916;2023-02-12T04:01:13;150941.88;;;2.34;100.00
51287;BME280;37364;46.974;18.916;2023-02-12T04:03:44;150905.84;;;2.20;100.00
51287;BME280;37364;46.974;18.916;2023-02-12T04:06:23;150939.31;;;2.33;100.00
51287;BME280;37364;46.974;18.916;2023-02-12T04:08:57;150925.16;;;2.28;100.00
51287;BME280;37364;46.974;18.916;2023-02-12T04:11:39;150934.16;;;2.31;100.00
51287;BME280;37364;46.974;18.916;2023-02-12T04:14:22;150923.84;;;2.27;100.00
51287;BME280;37364;46.974;18.916;2023-02-12T04:17:00;150927.69;;;2.29;100.00
51287;BME280;37364;46.974;18.916;2023-02-12T04:19:39;150925.16;;;2.28;100.00
51287;BME280;37364;46.974;18.916;2023-02-12T04:22:33;150927.69;;;2.29;100.00
51287;BME280;37364;46.974;18.916;2023-02-12T04:25:17;150912.28;;;2.23;100.00
51287;BME280;37364;46.974;18.916;2023-02-12T04:27:56;150898.13;;;2.17;100.00
51287;BME280;37364;46.974;18.916;2023-02-12T04:30:32;150874.94;;;2.08;100.00
51287;BME280;37364;46.974;18.916;2023-02-12T04:33:06;150886.56;;;2.12;100.00
51287;BME280;37364;46.974;18.916;2023-02-12T04:35:42;150895.56;;;2.16;100.00
51287;BME280;37364;46.974;18.916;2023-02-12T04:38:20;150895.56;;;2.16;100.00
51287;BME280;37364;46.974;18.916;2023-02-12T04:40:52;150880.13;;;2.10;100.00
51287;BME280;37364;46.974;18.916;2023-02-12T04:43:27;150868.53;;;2.05;100.00
51287;BME280;37364;46.974;18.916;2023-02-12T04:46:02;150849.22;;;1.97;100.00
51287;BME280;37364;46.974;18.916;2023-02-12T04:48:34;150835.06;;;1.92;100.00
51287;BME280;37364;46.974;18.916;2023-02-12T04:51:06;150820.97;;;1.86;100.00
51287;BME280;37364;46.974;18.916;2023-02-12T04:53:39;150801.66;;;1.78;100.00
51287;BME280;37364;46.974;18.916;2023-02-12T04:56:10;150782.38;;;1.71;100.00
51287;BME280;37364;46.974;18.916;2023-02-12T04:58:41;150790.06;;;1.74;100.00
51287;BME280;37364;46.974;18.916;2023-02-12T05:01:12;150778.50;;;1.69;100.00
51287;BME280;37364;46.974;18.916;2023-02-12T05:03:42;150787.50;;;1.73;100.00
51287;BME280;37364;46.974;18.916;2023-02-12T05:06:13;150786.19;;;1.72;100.00
51287;BME280;37364;46.974;18.916;2023-02-12T05:08:47;150824.78;;;1.88;100.00
51287;BME280;37364;46.974;18.916;2023-02-12T05:11:17;150831.25;;;1.90;100.00
51287;BME280;37364;46.974;18.916;2023-02-12T05:13:48;150811.94;;;1.83;100.00
51287;BME280;37364;46.974;18.916;2023-02-12T05:16:20;150828.66;;;1.89;100.00
51287;BME280;37364;46.974;18.916;2023-02-12T05:18:51;150800.34;;;1.78;100.00
51287;BME280;37364;46.974;18.916;2023-02-12T05:21:21;150770.75;;;1.66;100.00
51287;BME280;37364;46.974;18.916;2023-02-12T05:23:55;150781.06;;;1.70;100.00
51287;BME280;37364;46.974;18.916;2023-02-12T05:26:25;150782.38;;;1.71;100.00
51287;BME280;37364;46.974;18.916;2023-02-12T05:28:56;150764.34;;;1.64;100.00
51287;BME280;37364;46.974;18.916;2023-02-12T05:31:26;150768.22;;;1.65;100.00
51287;BME280;37364;46.974;18.916;2023-02-12T05:33:58;150777.22;;;1.69;100.00
51287;BME280;37364;46.974;18.916;2023-02-12T05:36:28;150766.94;;;1.65;100.00
51287;BME280;37364;46.974;18.916;2023-02-12T05:39:02;150736.03;;;1.52;100.00
51287;BME280;37364;46.974;18.916;2023-02-12T05:41:33;150734.78;;;1.52;100.00
51287;BME280;37364;46.974;18.916;2023-02-12T05:44:04;150745.06;;;1.56;100.00
51287;BME280;37364;46.974;18.916;2023-02-12T05:46:37;150730.91;;;1.50;100.00
51287;BME280;37364;46.974;18.916;2023-02-12T05:49:09;150759.22;;;1.62;100.00
51287;BME280;37364;46.974;18.916;2023-02-12T05:51:40;150738.66;;;1.53;100.00
51287;BME280;37364;46.974;18.916;2023-02-12T05:54:14;150750.19;;;1.58;100.00
51287;BME280;37364;46.974;18.916;2023-02-12T05:56:46;150721.91;;;1.47;100.00
51287;BME280;37364;46.974;18.916;2023-02-12T05:59:20;150720.63;;;1.46;100.00
51287;BME280;37364;46.974;18.916;2023-02-12T06:01:52;150703.94;;;1.40;100.00
51287;BME280;37364;46.974;18.916;2023-02-12T06:04:25;150716.75;;;1.45;100.00
51287;BME280;37364;46.974;18.916;2023-02-12T06:06:55;150706.47;;;1.41;100.00
51287;BME280;37364;46.974;18.916;2023-02-12T06:09:29;150698.78;;;1.37;100.00
51287;BME280;37364;46.974;18.916;2023-02-12T06:12:00;150698.78;;;1.37;100.00
51287;BME280;37364;46.974;18.916;2023-02-12T06:14:31;150697.47;;;1.37;100.00
51287;BME280;37364;46.974;18.916;2023-02-12T06:17:02;150656.34;;;1.21;100.00
51287;BME280;37364;46.974;18.916;2023-02-12T06:19:33;150682.03;;;1.31;100.00
51287;BME280;37364;46.974;18.916;2023-02-12T06:22:04;150661.47;;;1.23;100.00
51287;BME280;37364;46.974;18.916;2023-02-12T06:24:38;150676.91;;;1.29;100.00
51287;BME280;37364;46.974;18.916;2023-02-12T06:27:09;150666.63;;;1.25;100.00
51287;BME280;37364;46.974;18.916;2023-02-12T06:29:39;150658.94;;;1.22;100.00
51287;BME280;37364;46.974;18.916;2023-02-12T06:32:10;150631.91;;;1.11;100.00
51287;BME280;37364;46.974;18.916;2023-02-12T06:34:41;150639.66;;;1.14;100.00
51287;BME280;37364;46.974;18.916;2023-02-12T06:37:12;150643.47;;;1.15;100.00
51287;BME280;37364;46.974;18.916;2023-02-12T06:39:45;150707.75;;;1.41;100.00
51287;BME280;37364;46.974;18.916;2023-02-12T06:42:16;150701.34;;;1.38;100.00
51287;BME280;37364;46.974;18.916;2023-02-12T06:44:46;150701.34;;;1.38;100.00
51287;BME280;37364;46.974;18.916;2023-02-12T06:47:19;150716.75;;;1.45;100.00
51287;BME280;37364;46.974;18.916;2023-02-12T06:49:49;150727.03;;;1.49;100.00
51287;BME280;37364;46.974;18.916;2023-02-12T06:52:19;150714.22;;;1.44;100.00
51287;BME280;37364;46.974;18.916;2023-02-12T06:54:53;150724.50;;;1.48;100.00
51287;BME280;37364;46.974;18.916;2023-02-12T06:57:24;150721.91;;;1.47;100.00
51287;BME280;37364;46.974;18.916;2023-02-12T06:59:54;150745.06;;;1.56;100.00
51287;BME280;37364;46.974;18.916;2023-02-12T07:02:25;150751.47;;;1.58;100.00
51287;BME280;37364;46.974;18.916;2023-02-12T07:04:55;150764.34;;;1.64;100.00
51287;BME280;37364;46.974;18.916;2023-02-12T07:07:26;150751.47;;;1.58;100.00
51287;BME280;37364;46.974;18.916;2023-02-12T07:10:00;150833.78;;;1.91;100.00
51287;BME280;37364;46.974;18.916;2023-02-12T07:12:32;150841.53;;;1.94;100.00
51287;BME280;37364;46.974;18.916;2023-02-12T07:15:07;150863.38;;;2.03;100.00
51287;BME280;37364;46.974;18.916;2023-02-12T07:17:39;150890.41;;;2.14;100.00
51287;BME280;37364;46.974;18.916;2023-02-12T07:20:11;150913.53;;;2.23;100.00
51287;BME280;37364;46.974;18.916;2023-02-12T07:22:42;150928.97;;;2.29;100.00
51287;BME280;37364;46.974;18.916;2023-02-12T07:25:15;150947.00;;;2.36;100.00
51287;BME280;37364;46.974;18.916;2023-02-12T07:27:48;150975.34;;;2.48;100.00
51287;BME280;37364;46.974;18.916;2023-02-12T07:30:19;150994.63;;;2.55;100.00
51287;BME280;37364;46.974;18.916;2023-02-12T07:32:50;151007.47;;;2.61;100.00
51287;BME280;37364;46.974;18.916;2023-02-12T07:35:20;151035.81;;;2.72;100.00
51287;BME280;37364;46.974;18.916;2023-02-12T07:37:51;151064.13;;;2.83;100.00
51287;BME280;37364;46.974;18.916;2023-02-12T07:40:25;151082.16;;;2.90;100.00
51287;BME280;37364;46.974;18.916;2023-02-12T07:42:55;151119.47;;;3.05;100.00
51287;BME280;37364;46.974;18.916;2023-02-12T07:45:26;151136.25;;;3.12;100.00
51287;BME280;37364;46.974;18.916;2023-02-12T07:47:57;151158.13;;;3.21;100.00
51287;BME280;37364;46.974;18.916;2023-02-12T07:50:28;151186.44;;;3.32;100.00
51287;BME280;37364;46.974;18.916;2023-02-12T07:52:58;151199.31;;;3.37;100.00
51287;BME280;37364;46.974;18.916;2023-02-12T07:55:35;151212.19;;;3.42;100.00
51287;BME280;37364;46.974;18.916;2023-02-12T07:58:06;151236.66;;;3.52;100.00
51287;BME280;37364;46.974;18.916;2023-02-12T08:00:37;151265.00;;;3.63;100.00
51287;BME280;37364;46.974;18.916;2023-02-12T08:03:08;151294.66;;;3.75;100.00
51287;BME280;37364;46.974;18.916;2023-02-12T08:05:39;151315.25;;;3.83;100.00
51287;BME280;37364;46.974;18.916;2023-02-12T08:08:10;151347.47;;;3.96;100.00
51287;BME280;37364;46.974;18.916;2023-02-12T08:10:43;151368.06;;;4.04;100.00
51287;BME280;37364;46.974;18.916;2023-02-12T08:13:14;151360.31;;;4.01;100.00
51287;BME280;37364;46.974;18.916;2023-02-12T08:15:46;151391.25;;;4.13;100.00
51287;BME280;37364;46.974;18.916;2023-02-12T08:18:17;151426.06;;;4.27;100.00
51287;BME280;37364;46.974;18.916;2023-02-12T08:20:48;151450.50;;;4.37;100.00
51287;BME280;37364;46.974;18.916;2023-02-12T08:23:19;151454.38;;;4.39;100.00
51287;BME280;37364;46.974;18.916;2023-02-12T08:25:53;151505.97;;;4.59;100.00
51287;BME280;37364;46.974;18.916;2023-02-12T08:28:28;151482.75;;;4.50;100.00
51287;BME280;37364;46.974;18.916;2023-02-12T08:30:59;151464.69;;;4.43;100.00
51287;BME280;37364;46.974;18.916;2023-02-12T08:33:31;151502.09;;;4.58;100.00
51287;BME280;37364;46.974;18.916;2023-02-12T08:36:04;151549.81;;;4.77;100.00
51287;BME280;37364;46.974;18.916;2023-02-12T08:38:36;151569.16;;;4.84;100.00
51287;BME280;37364;46.974;18.916;2023-02-12T08:41:12;151548.47;;;4.76;100.00
51287;BME280;37364;46.974;18.916;2023-02-12T08:43:46;151566.53;;;4.83;100.00
51287;BME280;37364;46.974;18.916;2023-02-12T08:46:21;151603.97;;;4.98;100.00
51287;BME280;37364;46.974;18.916;2023-02-12T08:48:55;151623.31;;;5.06;100.00
51287;BME280;37364;46.974;18.916;2023-02-12T08:51:28;151632.28;;;5.09;100.00
51287;BME280;37364;46.974;18.916;2023-02-12T08:54:02;151634.88;;;5.10;100.00
51287;BME280;37364;46.974;18.916;2023-02-12T08:56:36;151658.13;;;5.20;100.00
51287;BME280;37364;46.974;18.916;2023-02-12T08:59:10;151696.75;;;5.35;100.00
51287;BME280;37364;46.974;18.916;2023-02-12T09:01:43;151754.81;;;5.58;100.00
51287;BME280;37364;46.974;18.916;2023-02-12T09:04:15;151734.19;;;5.50;100.00
51287;BME280;37364;46.974;18.916;2023-02-12T09:06:48;151790.97;;;5.72;100.00
51287;BME280;37364;46.974;18.916;2023-02-12T09:09:20;151789.66;;;5.72;100.00
51287;BME280;37364;46.974;18.916;2023-02-12T09:11:55;151803.84;;;5.78;100.00
51287;BME280;37364;46.974;18.916;2023-02-12T09:14:26;151793.53;;;5.73;100.00
51287;BME280;37364;46.974;18.916;2023-02-12T09:16:57;151843.84;;;5.93;100.00
51287;BME280;37364;46.974;18.916;2023-02-12T09:19:30;151873.56;;;6.05;100.00
51287;BME280;37364;46.974;18.916;2023-02-12T09:22:01;151892.94;;;6.13;100.00
51287;BME280;37364;46.974;18.916;2023-02-12T09:24:31;151939.41;;;6.31;100.00
51287;BME280;37364;46.974;18.916;2023-02-12T09:27:07;151957.44;;;6.39;100.00
51287;BME280;37364;46.974;18.916;2023-02-12T09:29:39;151944.56;;;6.33;100.00
51287;BME280;37364;46.974;18.916;2023-02-12T09:32:12;151936.81;;;6.30;100.00
51287;BME280;37364;46.974;18.916;2023-02-12T09:34:43;151983.31;;;6.49;100.00
51287;BME280;37364;46.974;18.916;2023-02-12T09:37:13;151996.19;;;6.54;100.00
51287;BME280;37364;46.974;18.916;2023-02-12T09:39:44;151980.69;;;6.48;100.00
51287;BME280;37364;46.974;18.916;2023-02-12T09:42:38;152049.13;;;6.75;100.00
51287;BME280;37364;46.974;18.916;2023-02-12T09:45:23;152007.84;;;6.59;100.00
51287;BME280;37364;46.974;18.916;2023-02-12T09:48:00;152060.72;;;6.80;100.00
51287;BME280;37364;46.974;18.916;2023-02-12T09:50:41;152095.59;;;6.93;100.00
51287;BME280;37364;46.974;18.916;2023-02-12T09:53:17;152107.25;;;6.98;100.00
51287;BME280;37364;46.974;18.916;2023-02-12T09:55:48;152118.84;;;7.03;100.00
51287;BME280;37364;46.974;18.916;2023-02-12T09:58:32;152126.63;;;7.06;100.00
51287;BME280;37364;46.974;18.916;2023-02-12T10:01:09;152129.19;;;7.07;100.00
51287;BME280;37364;46.974;18.916;2023-02-12T10:03:45;152186.03;;;7.29;100.00
51287;BME280;37364;46.974;18.916;2023-02-12T10:06:19;152192.47;;;7.32;100.00
51287;BME280;37364;46.974;18.916;2023-02-12T10:09:02;152219.56;;;7.43;100.00
51287;BME280;37364;46.974;18.916;2023-02-12T10:11:53;152248.00;;;7.54;100.00
51287;BME280;37364;46.974;18.916;2023-02-12T10:17:41;152224.78;;;7.45;100.00
51287;BME280;37364;46.974;18.916;2023-02-12T10:23:24;152320.38;;;7.83;100.00
51287;BME280;37364;46.974;18.916;2023-02-12T10:26:01;152310.03;;;7.79;100.00
51287;BME280;37364;46.974;18.916;2023-02-12T10:28:37;152277.72;;;7.66;100.00
51287;BME280;37364;46.974;18.916;2023-02-12T10:31:20;152339.75;;;7.90;100.00
51287;BME280;37364;46.974;18.916;2023-02-12T10:33:56;152394.03;;;8.12;100.00
51287;BME280;37364;46.974;18.916;2023-02-12T10:36:37;152422.47;;;8.23;100.00
51287;BME280;37364;46.974;18.916;2023-02-12T10:39:14;152471.66;;;8.43;100.00
51287;BME280;37364;46.974;18.916;2023-02-12T10:41:53;152421.16;;;8.23;100.00
51287;BME280;37364;46.974;18.916;2023-02-12T10:44:28;152425.03;;;8.24;100.00
51287;BME280;37364;46.974;18.916;2023-02-12T10:47:11;152470.31;;;8.42;100.00
51287;BME280;37364;46.974;18.916;2023-02-12T10:49:53;152366.88;;;8.01;100.00
51287;BME280;37364;46.974;18.916;2023-02-12T10:52:35;152428.94;;;8.26;100.00
51287;BME280;37364;46.974;18.916;2023-02-12T10:55:26;152454.78;;;8.36;100.00
51287;BME280;37364;46.974;18.916;2023-02-12T10:58:00;152497.50;;;8.53;100.00
51287;BME280;37364;46.974;18.916;2023-02-12T11:00:38;152511.72;;;8.59;100.00
51287;BME280;37364;46.974;18.916;2023-02-12T11:03:28;152510.41;;;8.58;100.00
51287;BME280;37364;46.974;18.916;2023-02-12T11:06:12;152501.38;;;8.55;100.00
51287;BME280;37364;46.974;18.916;2023-02-12T11:08:49;152459.94;;;8.38;100.00
51287;BME280;37364;46.974;18.916;2023-02-12T11:11:22;152469.06;;;8.42;100.00
51287;BME280;37364;46.974;18.916;2023-02-12T11:14:05;152501.38;;;8.55;100.00
51287;BME280;37364;46.974;18.916;2023-02-12T11:16:42;152502.66;;;8.55;100.00
51287;BME280;37364;46.974;18.916;2023-02-12T11:19:24;152572.47;;;8.83;100.00
51287;BME280;37364;46.974;18.916;2023-02-12T11:22:06;152545.31;;;8.72;100.00
51287;BME280;37364;46.974;18.916;2023-02-12T11:25:13;152452.22;;;8.35;100.00
51287;BME280;37364;46.974;18.916;2023-02-12T11:28:18;152513.00;;;8.59;100.00
51287;BME280;37364;46.974;18.916;2023-02-12T11:31:22;152541.47;;;8.70;100.00
51287;BME280;37364;46.974;18.916;2023-02-12T11:37:22;152685.00;;;9.27;100.00
51287;BME280;37364;46.974;18.916;2023-02-12T11:40:15;152655.25;;;9.16;100.00
51287;BME280;37364;46.974;18.916;2023-02-12T11:43:06;152511.72;;;8.59;100.00
51287;BME280;37364;46.974;18.916;2023-02-12T11:46:02;152479.38;;;8.46;100.00
51287;BME280;37364;46.974;18.916;2023-02-12T11:48:52;152496.16;;;8.52;100.00
51287;BME280;37364;46.974;18.916;2023-02-12T11:51:46;152588.00;;;8.89;100.00
51287;BME280;37364;46.974;18.916;2023-02-12T11:54:42;152581.53;;;8.86;100.00
51287;BME280;37364;46.974;18.916;2023-02-12T11:57:42;152554.38;;;8.76;100.00
51287;BME280;37364;46.974;18.916;2023-02-12T12:00:28;152599.63;;;8.94;100.00
51287;BME280;37364;46.974;18.916;2023-02-12T12:03:20;152647.47;;;9.13;100.00
51287;BME280;37364;46.974;18.916;2023-02-12T12:05:58;152661.72;;;9.18;100.00
51287;BME280;37364;46.974;18.916;2023-02-12T12:08:35;152717.31;;;9.40;100.00
51287;BME280;37364;46.974;18.916;2023-02-12T12:11:15;152709.59;;;9.37;100.00
51287;BME280;37364;46.974;18.916;2023-02-12T12:13:57;152669.50;;;9.21;100.00
51287;BME280;37364;46.974;18.916;2023-02-12T12:16:35;152653.94;;;9.15;100.00
51287;BME280;37364;46.974;18.916;2023-02-12T12:19:26;152661.72;;;9.18;100.00
51287;BME280;37364;46.974;18.916;2023-02-12T12:22:14;152625.53;;;9.04;100.00
51287;BME280;37364;46.974;18.916;2023-02-12T12:24:51;152578.94;;;8.85;100.00
51287;BME280;37364;46.974;18.916;2023-02-12T12:27:41;152598.34;;;8.93;100.00
51287;BME280;37364;46.974;18.916;2023-02-12T12:30:37;152622.91;;;9.03;100.00
51287;BME280;37364;46.974;18.916;2023-02-12T12:33:16;152730.28;;;9.45;100.00
51287;BME280;37364;46.974;18.916;2023-02-12T12:36:01;152747.09;;;9.52;100.00
51287;BME280;37364;46.974;18.916;2023-02-12T12:38:43;152696.63;;;9.32;100.00
51287;BME280;37364;46.974;18.916;2023-02-12T12:41:24;152708.25;;;9.37;100.00
51287;BME280;37364;46.974;18.916;2023-02-12T12:44:10;152716.03;;;9.40;100.00
51287;BME280;37364;46.974;18.916;2023-02-12T12:46:55;152624.19;;;9.03;100.00
51287;BME280;37364;46.974;18.916;2023-02-12T12:49:36;152608.69;;;8.97;100.00
51287;BME280;37364;46.974;18.916;2023-02-12T12:52:49;152598.34;;;8.93;100.00
51287;BME280;37364;46.974;18.916;2023-02-12T12:55:51;152489.72;;;8.50;100.00
51287;BME280;37364;46.974;18.916;2023-02-12T12:58:36;152500.06;;;8.54;100.00
51287;BME280;37364;46.974;18.916;2023-02-12T13:01:41;152427.66;;;8.25;100.00
51287;BME280;37364;46.974;18.916;2023-02-12T13:04:36;152391.44;;;8.11;100.00
51287;BME280;37364;46.974;18.916;2023-02-12T13:07:23;152374.66;;;8.04;100.00
51287;BME280;37364;46.974;18.916;2023-02-12T13:10:25;152419.88;;;8.22;100.00
51287;BME280;37364;46.974;18.916;2023-02-12T13:13:44;152409.53;;;8.18;100.00
51287;BME280;37364;46.974;18.916;2023-02-12T13:16:46;152408.25;;;8.18;100.00
51287;BME280;37364;46.974;18.916;2023-02-12T13:19:53;152416.00;;;8.21;100.00
51287;BME280;37364;46.974;18.916;2023-02-12T13:22:59;152391.44;;;8.11;100.00
51287;BME280;37364;46.974;18.916;2023-02-12T13:25:58;152370.75;;;8.03;100.00
51287;BME280;37364;46.974;18.916;2023-02-12T13:28:49;152311.31;;;7.79;100.00
51287;BME280;37364;46.974;18.916;2023-02-12T13:31:58;152279.03;;;7.66;100.00
51287;BME280;37364;46.974;18.916;2023-02-12T13:34:52;152251.88;;;7.56;100.00
51287;BME280;37364;46.974;18.916;2023-02-12T13:37:42;152224.78;;;7.45;100.00
51287;BME280;37364;46.974;18.916;2023-02-12T13:40:31;152284.22;;;7.68;100.00
51287;BME280;37364;46.974;18.916;2023-02-12T13:43:51;152308.75;;;7.78;100.00